Time;durP1;ratioP1;P1;durP2;ratioP2;P2;SDS_P1;SDS_P2;PMS_P1;PMS_P2;Temp;Humidity;BMP_temperature;BMP_pressure;BME280_temperature;BME280_humidity;BME280_pressure;Samples;Min_cycle;Max_cycle;Signal;HPM_P1;HPM_P2
2022/04/30 00:01:50;;;;;;;3.13;2.55;;;;;;;7.10;67.82;102822.03;5033343;28;20389;-76
2022/04/30 00:04:22;;;;;;;5.43;3.20;;;;;;;7.03;67.70;102819.22;5034041;28;20084;-76
2022/04/30 00:06:47;;;;;;;6.22;3.15;;;;;;;6.98;67.88;102815.63;5033388;28;20366;-76
2022/04/30 00:09:12;;;;;;;4.38;3.10;;;;;;;6.93;68.84;102818.94;5033087;28;20033;-76
2022/04/30 00:11:38;;;;;;;4.18;3.00;;;;;;;6.90;67.60;102818.81;5033407;28;20393;-76
2022/04/30 00:14:04;;;;;;;6.85;2.97;;;;;;;6.88;68.27;102815.31;5033001;28;20044;-76
2022/04/30 00:16:29;;;;;;;5.00;3.13;;;;;;;6.83;68.01;102816.88;5033113;28;20033;-76
2022/04/30 00:18:56;;;;;;;3.87;2.63;;;;;;;6.77;69.07;102812.41;5032598;28;20041;-76
2022/04/30 00:21:21;;;;;;;7.60;3.25;;;;;;;6.76;67.94;102814.91;5032793;28;20029;-76
2022/04/30 00:23:46;;;;;;;5.57;3.00;;;;;;;6.73;68.89;102814.84;5033075;28;20032;-76
2022/04/30 00:26:12;;;;;;;3.78;2.60;;;;;;;6.68;67.84;102814.69;5033655;28;20074;-76
2022/04/30 00:28:37;;;;;;;4.93;3.15;;;;;;;6.68;68.50;102813.78;5032124;28;20363;-76
2022/04/30 00:31:02;;;;;;;4.90;3.10;;;;;;;6.60;70.23;102806.69;5033206;28;20037;-76
2022/04/30 00:33:28;;;;;;;4.97;3.28;;;;;;;6.60;69.57;102810.97;5033490;28;20115;-77
2022/04/30 00:35:56;;;;;;;4.00;3.10;;;;;;;6.57;68.63;102818.63;5032543;28;20355;-76
2022/04/30 00:38:21;;;;;;;4.70;3.20;;;;;;;6.55;69.65;102807.38;5032879;28;20079;-76
2022/04/30 00:40:47;;;;;;;4.68;3.00;;;;;;;6.51;69.10;102810.66;5032864;28;20041;-76
2022/04/30 00:43:12;;;;;;;4.20;2.97;;;;;;;6.48;68.86;102804.56;5032636;28;20025;-76
2022/04/30 00:45:44;;;;;;;4.80;2.70;;;;;;;6.49;68.62;102806.31;5032718;28;20029;-76
2022/04/30 00:48:09;;;;;;;3.15;2.60;;;;;;;6.46;69.08;102800.19;5032619;28;20031;-76
2022/04/30 00:50:36;;;;;;;5.10;2.88;;;;;;;6.41;71.17;102796.59;5032290;28;20120;-76
2022/04/30 00:53:03;;;;;;;;;;;;;;;6.39;70.51;102791.38;5033428;28;20099;-76
2022/04/30 00:55:31;;;;;;;7.22;3.28;;;;;;;6.34;70.38;102800.66;5032546;28;20293;-77
2022/04/30 00:58:00;;;;;;;5.32;3.10;;;;;;;6.35;68.84;102797.28;5032658;28;21004;-76
2022/04/30 01:00:27;;;;;;;4.78;3.03;;;;;;;6.30;69.62;102791.06;5032963;28;20022;-76
2022/04/30 01:02:52;;;;;;;3.95;2.80;;;;;;;6.30;70.02;102793.63;5032033;28;20034;-76
2022/04/30 01:05:17;;;;;;;4.43;3.00;;;;;;;6.27;70.29;102788.38;5032525;28;20104;-76
2022/04/30 01:07:43;;;;;;;3.25;2.58;;;;;;;6.28;68.99;102787.56;5032472;28;20389;-76
2022/04/30 01:10:09;;;;;;;2.55;2.35;;;;;;;6.29;68.40;102789.31;5032132;28;20026;-76
2022/04/30 01:12:35;;;;;;;2.97;2.40;;;;;;;6.28;68.94;102793.59;5032327;28;20035;-76
2022/04/30 01:15:04;;;;;;;2.72;2.22;;;;;;;6.27;71.11;102783.22;5032041;28;20466;-76
2022/04/30 01:17:30;;;;;;;3.42;2.42;;;;;;;6.22;71.47;102785.63;5032351;28;20044;-76
2022/04/30 01:19:55;;;;;;;3.55;2.50;;;;;;;6.21;69.49;102785.59;5031561;28;20529;-76
2022/04/30 01:22:29;;;;;;;3.28;2.28;;;;;;;6.18;69.81;102783.81;5032817;28;20018;-76
2022/04/30 01:24:56;;;;;;;2.28;2.05;;;;;;;6.18;69.90;102783.81;5031727;28;20025;-76
2022/04/30 01:27:25;;;;;;;2.05;1.85;;;;;;;6.18;69.80;102784.66;5032218;28;20030;-76
2022/04/30 01:29:51;;;;;;;2.65;2.40;;;;;;;6.15;70.78;102781.09;5032480;28;20098;-76
2022/04/30 01:37:54;;;;;;;4.53;2.72;;;;;;;6.07;71.33;102778.25;5032159;28;20111;-77
2022/04/30 01:40:20;;;;;;;3.28;2.30;;;;;;;6.06;70.42;102778.22;5036440;28;20033;-76
2022/04/30 01:42:47;;;;;;;3.03;2.42;;;;;;;6.03;69.63;102779.88;5035567;28;20036;-76
2022/04/30 01:45:14;;;;;;;3.67;2.10;;;;;;;6.06;69.57;102783.38;5036051;28;20029;-76
2022/04/30 01:47:41;;;;;;;5.18;2.75;;;;;;;5.98;73.38;102775.34;5036089;28;20136;-76
2022/04/30 01:50:08;;;;;;;3.40;2.50;;;;;;;5.95;70.75;102773.53;5036288;28;20033;-76
2022/04/30 01:52:34;;;;;;;4.85;2.72;;;;;;;5.92;71.12;102770.84;5035652;28;20045;-76
2022/04/30 01:54:59;;;;;;;4.32;2.47;;;;;;;5.91;71.73;102778.53;5035867;28;20027;-76
2022/04/30 01:57:26;;;;;;;5.65;2.67;;;;;;;5.87;74.05;102777.53;5036134;28;20104;-76
2022/04/30 01:59:56;;;;;;;3.53;2.60;;;;;;;5.84;72.69;102777.44;5035413;28;20087;-76
2022/04/30 02:02:23;;;;;;;3.97;2.70;;;;;;;5.81;71.24;102770.44;5036065;28;20116;-76
2022/04/30 02:04:51;;;;;;;4.35;2.60;;;;;;;5.78;72.60;102777.19;5035978;28;20025;-76
2022/04/30 02:07:18;;;;;;;3.38;2.50;;;;;;;5.77;70.49;102775.44;5034215;28;20038;-76
2022/04/30 02:09:51;;;;;;;4.70;2.80;;;;;;;5.75;71.91;102761.63;5035549;28;20036;-76
2022/04/30 02:12:16;;;;;;;3.00;2.42;;;;;;;5.72;70.93;102758.16;5035837;28;20433;-76
2022/04/30 02:14:54;;;;;;;5.70;2.95;;;;;;;5.68;71.48;102763.13;5035507;28;20076;-76
2022/04/30 02:17:23;;;;;;;3.50;2.72;;;;;;;5.62;73.15;102763.78;5035814;28;20091;-76
2022/04/30 02:22:38;;;;;;;3.42;2.58;;;;;;;5.61;72.96;102763.72;5035689;28;20041;-76
2022/04/30 02:25:12;;;;;;;4.35;2.70;;;;;;;5.55;72.54;102765.25;5035918;28;20022;-76
2022/04/30 02:27:39;;;;;;;4.03;2.70;;;;;;;5.52;72.93;102762.56;5034811;28;20083;-76
2022/04/30 02:30:09;;;;;;;;;;;;;;;5.48;72.84;102759.81;5035803;28;20477;-76
2022/04/30 02:33:03;;;;;;;3.65;2.70;;;;;;;5.48;73.92;102757.25;5035810;28;19920;-76
2022/04/30 02:35:30;;;;;;;5.18;2.75;;;;;;;5.44;73.32;102755.38;5034855;28;20469;-76
2022/04/30 02:37:58;;;;;;;4.80;2.92;;;;;;;5.41;72.78;102751.00;5035139;28;20408;-76
2022/04/30 02:40:26;;;;;;;3.53;2.55;;;;;;;5.40;71.27;102750.09;5035660;28;20025;-76
2022/04/30 02:42:52;;;;;;;3.08;2.58;;;;;;;5.40;72.18;102751.81;5034034;28;20076;-76
2022/04/30 02:45:20;;;;;;;4.63;3.17;;;;;;;5.36;74.05;102749.94;5035160;28;20425;-76
2022/04/30 02:47:53;;;;;;;4.28;3.00;;;;;;;5.33;74.70;102745.56;5035261;28;20033;-76
2022/04/30 02:50:19;;;;;;;4.60;2.90;;;;;;;5.31;72.30;102744.63;5033919;28;20025;-76
2022/04/30 02:52:45;;;;;;;4.78;3.10;;;;;;;5.31;72.19;102746.31;5034692;28;20124;-76
2022/04/30 02:55:12;;;;;;;4.90;2.70;;;;;;;5.34;71.86;102739.59;5034711;28;20072;-76
2022/04/30 03:00:28;;;;;;;3.05;2.40;;;;;;;5.34;71.87;102736.16;5035530;28;20447;-76
2022/04/30 03:02:54;;;;;;;3.00;2.30;;;;;;;5.35;72.65;102737.88;5033572;28;20469;-76
2022/04/30 03:05:19;;;;;;;3.45;2.53;;;;;;;5.35;72.82;102740.44;5034967;28;20108;-76
2022/04/30 03:07:47;;;;;;;2.90;2.50;;;;;;;5.33;71.92;102740.41;5034566;28;20463;-76
2022/04/30 03:10:12;;;;;;;4.93;2.97;;;;;;;5.28;74.24;102744.53;5034380;28;20032;-76
2022/04/30 03:12:37;;;;;;;3.72;2.58;;;;;;;5.24;72.96;102747.78;5034043;28;20034;-76
2022/04/30 03:15:03;;;;;;;2.40;2.17;;;;;;;5.23;72.79;102748.59;5035045;28;20064;-76
2022/04/30 03:22:56;;;;;;;4.53;2.70;;;;;;;5.25;73.30;102740.13;5034863;28;20047;-76
2022/04/30 03:25:22;;;;;;;4.40;2.72;;;;;;;5.24;71.64;102748.66;5034159;28;20100;-76
2022/04/30 03:27:47;;;;;;;2.95;2.50;;;;;;;5.24;72.20;102740.94;5034347;28;20036;-76
2022/04/30 03:30:13;;;;;;;2.78;2.30;;;;;;;5.25;72.11;102739.25;5033940;28;20036;-76
2022/04/30 03:32:42;;;;;;;2.75;2.30;;;;;;;5.24;72.96;102732.34;5033791;28;20022;-76
2022/04/30 03:35:08;;;;;;;3.08;2.30;;;;;;;5.19;72.29;102729.59;5034378;28;20489;-76
2022/04/30 03:37:35;;;;;;;2.75;2.40;;;;;;;5.18;71.60;102722.69;5033429;28;20036;-76
2022/04/30 03:40:00;;;;;;;3.00;2.40;;;;;;;5.19;71.38;102728.72;5034039;28;20036;-76
2022/04/30 03:42:25;;;;;;;3.75;2.50;;;;;;;5.19;71.35;102723.56;5034486;28;20397;-76
2022/04/30 03:44:53;;;;;;;3.10;2.47;;;;;;;5.21;71.22;102729.66;5033491;28;20032;-76
2022/04/30 03:47:18;;;;;;;5.13;2.42;;;;;;;5.21;71.11;102724.50;5033851;28;20036;-76
2022/04/30 03:49:47;;;;;;;4.18;2.70;;;;;;;5.21;71.20;102720.25;5033940;28;20026;-76
2022/04/30 03:52:12;;;;;;;5.47;2.75;;;;;;;5.20;70.71;102717.59;5033407;28;20533;-76
2022/04/30 03:54:39;;;;;;;5.03;2.90;;;;;;;5.18;71.08;102719.25;5033538;28;20121;-76
2022/04/30 03:57:04;;;;;;;;;;;;;;;5.17;70.88;102725.22;5034070;28;20037;-76
2022/04/30 03:59:30;;;;;;;5.67;3.00;;;;;;;5.16;70.73;102720.91;5033584;28;19913;-76
2022/04/30 04:01:55;;;;;;;4.43;2.78;;;;;;;5.13;70.88;102720.78;5032270;28;20375;-76
2022/04/30 04:04:20;;;;;;;4.47;2.97;;;;;;;5.11;70.70;102715.56;5033944;28;20013;-76
2022/04/30 04:06:47;;;;;;;5.47;3.00;;;;;;;5.10;70.70;102719.81;5032523;28;20029;-76
2022/04/30 04:09:15;;;;;;;4.82;2.80;;;;;;;5.06;70.71;102723.13;5033881;28;20397;-76
2022/04/30 04:11:40;;;;;;;4.90;3.00;;;;;;;5.03;70.49;102723.00;5033571;28;20035;-76
2022/04/30 04:19:33;;;;;;;6.00;3.10;;;;;;;4.98;70.91;102728.78;5033581;28;20045;-76
2022/04/30 04:21:59;;;;;;;5.55;3.00;;;;;;;4.97;70.88;102729.59;5033413;28;20021;-77
2022/04/30 04:27:09;;;;;;;4.80;3.22;;;;;;;4.92;70.92;102724.28;5033393;28;20037;-76
2022/04/30 04:29:35;;;;;;;5.45;3.00;;;;;;;4.90;70.96;102725.91;5033096;28;20037;-76
2022/04/30 04:32:00;;;;;;;5.30;3.05;;;;;;;4.90;70.71;102733.63;5032661;28;20037;-78
2022/04/30 04:34:25;;;;;;;4.72;2.97;;;;;;;4.88;71.18;102730.13;5032830;28;20032;-78
2022/04/30 04:36:51;;;;;;;5.72;3.20;;;;;;;4.86;71.11;102729.19;5033016;28;20029;-75
2022/04/30 04:39:16;;;;;;;5.22;3.17;;;;;;;4.83;71.14;102735.09;5033040;28;20389;-75
2022/04/30 04:41:43;;;;;;;4.75;3.00;;;;;;;4.83;71.05;102735.09;5032233;28;20071;-75
2022/04/30 04:44:09;;;;;;;7.07;3.35;;;;;;;4.83;71.51;102736.81;5032845;28;20029;-75
2022/04/30 04:46:36;;;;;;;5.38;3.10;;;;;;;4.85;71.14;102738.59;5033378;28;20052;-75
2022/04/30 04:49:01;;;;;;;4.88;3.00;;;;;;;4.87;71.37;102733.50;5032639;28;20040;-75
2022/04/30 04:51:27;;;;;;;4.68;2.80;;;;;;;4.89;71.57;102742.16;5032333;28;20045;-75
2022/04/30 04:53:53;;;;;;;5.32;3.03;;;;;;;4.89;71.69;102743.06;5032810;28;20034;-75
2022/04/30 04:56:19;;;;;;;5.53;2.90;;;;;;;4.90;71.35;102742.22;5032391;28;20504;-75
2022/04/30 04:58:44;;;;;;;4.35;2.85;;;;;;;4.93;71.42;102751.78;5032512;28;20053;-75
2022/04/30 05:01:09;;;;;;;4.55;3.00;;;;;;;4.95;71.46;102753.59;5032753;28;20048;-75
2022/04/30 05:03:34;;;;;;;4.50;2.90;;;;;;;4.98;71.62;102755.38;5032282;28;20041;-75
2022/04/30 05:06:00;;;;;;;3.80;2.70;;;;;;;5.01;71.43;102757.22;5032660;28;20029;-75
2022/04/30 05:08:25;;;;;;;4.25;2.75;;;;;;;5.02;71.64;102762.41;5032725;28;20104;-75
2022/04/30 05:10:50;;;;;;;4.22;2.90;;;;;;;5.05;71.39;102762.53;5031674;28;20095;-75
2022/04/30 05:13:16;;;;;;;5.10;2.85;;;;;;;5.09;71.62;102771.25;5032306;28;20026;-75
2022/04/30 05:15:41;;;;;;;4.50;2.80;;;;;;;5.10;71.78;102766.16;5032107;28;20156;-75
2022/04/30 05:18:07;;;;;;;5.22;3.30;;;;;;;5.11;74.61;102767.06;5032102;28;20367;-75
2022/04/30 05:20:33;;;;;;;4.87;2.90;;;;;;;5.12;73.63;102768.81;5032498;28;20032;-76
2022/04/30 05:22:58;;;;;;;5.40;3.30;;;;;;;5.10;74.96;102763.59;5031349;28;20136;-76
2022/04/30 05:25:23;;;;;;;5.90;3.67;;;;;;;5.15;77.49;102762.91;5031912;28;20029;-76
2022/04/30 05:27:49;;;;;;;8.07;4.00;;;;;;;5.13;74.35;102769.69;5032246;28;20045;-76
2022/04/30 05:30:14;;;;;;;10.73;5.15;;;;;;;5.12;78.89;102763.66;5032052;28;20026;-76
2022/04/30 05:32:39;;;;;;;13.43;5.95;;;;;;;5.09;78.18;102768.69;5031914;28;20049;-76
2022/04/30 05:35:05;;;;;;;12.07;5.53;;;;;;;5.07;78.63;102767.75;5032531;28;20044;-76
2022/04/30 05:37:30;;;;;;;13.82;5.90;;;;;;;5.04;80.50;102765.03;5031971;28;20536;-76
2022/04/30 05:39:55;;;;;;;13.10;6.05;;;;;;;5.00;79.78;102761.47;5031694;28;20030;-76
2022/04/30 05:42:20;;;;;;;10.18;5.25;;;;;;;5.02;78.30;102765.00;5032347;28;20026;-76
2022/04/30 05:44:46;;;;;;;15.20;6.30;;;;;;;5.04;80.29;102765.94;5031645;28;20018;-76
2022/04/30 05:47:11;;;;;;;11.40;5.80;;;;;;;5.07;80.01;102763.47;5032338;28;20048;-76
2022/04/30 05:49:36;;;;;;;12.43;5.82;;;;;;;5.13;81.33;102769.69;5031962;28;20038;-77
2022/04/30 05:52:02;;;;;;;10.15;5.05;;;;;;;5.17;79.35;102767.28;5031250;28;20044;-77
2022/04/30 05:54:28;;;;;;;12.63;6.15;;;;;;;5.24;81.58;102774.41;5032261;28;20371;-77
2022/04/30 05:56:57;;;;;;;17.60;7.10;;;;;;;5.24;81.28;102770.97;5031518;28;20061;-77
2022/04/30 05:59:22;;;;;;;16.25;6.80;;;;;;;5.26;82.51;102770.19;5031035;28;20045;-77
2022/04/30 06:01:47;;;;;;;13.15;6.38;;;;;;;5.32;79.15;102774.69;5031935;28;20029;-77
2022/04/30 06:04:13;;;;;;;11.15;5.50;;;;;;;5.41;78.95;102771.59;5032192;28;20041;-78
2022/04/30 06:06:38;;;;;;;12.52;5.72;;;;;;;5.49;81.85;102783.03;5031048;28;20034;-77
2022/04/30 06:09:03;;;;;;;13.68;6.78;;;;;;;5.53;81.90;102771.16;5032184;28;20393;-77
2022/04/30 06:11:28;;;;;;;14.57;6.50;;;;;;;5.59;81.00;102778.22;5032204;28;20045;-78
2022/04/30 06:13:54;;;;;;;11.50;5.57;;;;;;;5.65;79.77;102776.75;5031613;28;20024;-76
2022/04/30 06:16:19;;;;;;;9.63;4.90;;;;;;;5.74;79.44;102776.22;5031701;28;20049;-78
2022/04/30 06:18:44;;;;;;;7.93;4.60;;;;;;;5.83;78.89;102771.38;5031915;28;20033;-77
2022/04/30 06:21:10;;;;;;;9.98;5.20;;;;;;;5.93;81.15;102772.59;5030826;28;20025;-78
2022/04/30 06:23:35;;;;;;;13.73;6.43;;;;;;;6.00;80.13;102773.72;5031139;28;20389;-78
2022/04/30 06:26:00;;;;;;;12.50;6.07;;;;;;;6.09;79.81;102773.16;5032271;28;20022;-77
2022/04/30 06:28:25;;;;;;;11.80;5.50;;;;;;;6.17;79.06;102777.75;5035233;28;20388;-76
2022/04/30 06:30:51;;;;;;;13.20;5.82;;;;;;;6.25;80.27;102779.72;5035396;28;20029;-76
2022/04/30 06:33:19;;;;;;;17.27;8.30;;;;;;;6.28;80.14;102778.13;5035120;28;20126;-76
2022/04/30 06:35:44;;;;;;;15.90;7.30;;;;;;;6.34;79.58;102783.47;5034978;28;20371;-76
2022/04/30 06:38:11;;;;;;;14.57;7.13;;;;;;;6.42;79.43;102777.69;5035637;28;20034;-76
2022/04/30 06:40:36;;;;;;;;;;;;;;;6.49;78.58;102774.50;5035032;28;20032;-76
2022/04/30 06:43:02;;;;;;;12.87;5.90;;;;;;;6.60;78.41;102780.88;5035038;28;19913;-76
2022/04/30 06:45:28;;;;;;;11.57;5.33;;;;;;;6.88;78.33;102778.31;5035619;28;20025;-76
2022/04/30 06:47:53;;;;;;;10.02;5.15;;;;;;;8.49;75.79;102769.84;5034761;28;20076;-76
2022/04/30 06:50:19;;;;;;;10.98;5.88;;;;;;;10.65;70.30;102768.06;5035113;28;20087;-77
2022/04/30 06:58:12;;;;;;;11.23;5.70;;;;;;;15.73;58.12;102769.59;5035744;28;20472;-76
2022/04/30 07:01:26;;;;;;;7.77;4.40;;;;;;;17.09;53.02;102770.22;5035108;28;20025;-76
2022/04/30 07:03:27;;;;;;;8.75;4.82;;;;;;;18.25;47.72;102767.69;5034236;28;20034;-76
2022/04/30 07:06:02;;;;;;;8.35;4.80;;;;;;;18.62;47.30;102774.94;5034659;28;20037;-76
2022/04/30 07:08:27;;;;;;;9.02;4.55;;;;;;;18.49;48.52;102771.66;5034644;28;20029;-76
2022/04/30 07:10:53;;;;;;;9.03;4.93;;;;;;;17.80;46.81;102767.50;5034235;28;20482;-76
2022/04/30 07:13:18;;;;;;;8.20;4.40;;;;;;;16.69;49.65;102775.84;5035089;28;20034;-76
2022/04/30 07:15:43;;;;;;;6.63;4.03;;;;;;;15.67;51.42;102779.22;5034129;28;20037;-76
2022/04/30 07:18:08;;;;;;;10.67;5.50;;;;;;;14.35;49.88;102780.47;5034353;28;20363;-77
2022/04/30 07:20:35;;;;;;;9.67;4.90;;;;;;;13.50;53.81;102779.47;5034586;28;20041;-76
2022/04/30 07:23:00;;;;;;;8.95;4.50;;;;;;;12.76;56.09;102790.34;5033032;28;20034;-77
2022/04/30 07:25:28;;;;;;;7.63;4.20;;;;;;;12.24;57.50;102778.66;5034034;28;20466;-78
2022/04/30 07:27:53;;;;;;;7.95;4.35;;;;;;;11.72;59.44;102774.66;5033250;28;20026;-78
2022/04/30 07:30:19;;;;;;;6.50;4.07;;;;;;;11.44;60.07;102781.28;5032930;28;20128;-77
2022/04/30 07:32:44;;;;;;;8.17;4.50;;;;;;;11.22;60.05;102781.00;5033707;28;20041;-77
2022/04/30 07:35:09;;;;;;;7.37;4.20;;;;;;;11.00;60.89;102779.81;5034104;28;20377;-77
2022/04/30 07:37:35;;;;;;;8.90;4.60;;;;;;;10.73;61.38;102772.50;5033038;28;20053;-80
2022/04/30 07:40:03;;;;;;;8.97;4.80;;;;;;;10.58;62.20;102767.94;5034184;28;20453;-80
2022/04/30 07:42:28;;;;;;;10.68;5.03;;;;;;;10.38;62.35;102772.81;5034356;28;20100;-79
2022/04/30 07:44:59;;;;;;;7.47;4.50;;;;;;;10.34;63.23;102771.88;5033080;28;20116;-77
2022/04/30 07:47:25;;;;;;;6.70;4.18;;;;;;;10.44;62.92;102768.59;5032395;28;20017;-77
2022/04/30 07:49:51;;;;;;;6.78;4.10;;;;;;;10.52;62.42;102771.31;5031899;28;20068;-77
2022/04/30 07:52:16;;;;;;;10.63;4.73;;;;;;;10.44;62.52;102766.00;5032427;28;20081;-77
2022/04/30 07:54:42;;;;;;;13.80;5.80;;;;;;;10.17;62.79;102763.78;5033821;28;20071;-77
2022/04/30 07:57:08;;;;;;;10.45;5.32;;;;;;;9.99;63.14;102765.22;5034222;28;20091;-77
2022/04/30 07:59:33;;;;;;;10.00;5.20;;;;;;;10.00;63.50;102761.78;5033210;28;20029;-77
2022/04/30 08:01:59;;;;;;;10.37;5.67;;;;;;;10.04;63.43;102773.94;5033406;28;20497;-77
2022/04/30 08:04:24;;;;;;;8.37;4.80;;;;;;;10.09;63.77;102762.78;5033510;28;20036;-77
2022/04/30 08:06:49;;;;;;;9.73;5.10;;;;;;;10.18;63.34;102758.66;5033142;28;20053;-77
2022/04/30 08:09:15;;;;;;;10.23;5.13;;;;;;;10.29;63.78;102758.81;5033995;28;20049;-77
2022/04/30 08:11:41;;;;;;;11.60;5.63;;;;;;;10.24;64.38;102752.69;5032869;28;20033;-77
2022/04/30 08:14:06;;;;;;;7.03;4.25;;;;;;;10.21;63.58;102757.81;5033288;28;20026;-77
2022/04/30 08:16:32;;;;;;;9.67;4.83;;;;;;;10.21;63.58;102755.22;5033728;28;20382;-77
2022/04/30 08:18:58;;;;;;;7.57;4.40;;;;;;;10.25;63.75;102758.75;5032659;28;20026;-78
2022/04/30 08:21:23;;;;;;;7.68;4.43;;;;;;;10.27;64.07;102754.47;5032353;28;20103;-78
2022/04/30 08:23:49;;;;;;;8.10;4.60;;;;;;;10.26;63.38;102755.31;5032273;28;20474;-76
2022/04/30 08:26:17;;;;;;;8.87;4.40;;;;;;;10.28;63.44;102753.59;5032111;28;20042;-77
2022/04/30 08:28:42;;;;;;;9.90;4.65;;;;;;;10.29;63.10;102751.03;5032465;28;20053;-77
2022/04/30 08:31:08;;;;;;;7.40;4.73;;;;;;;10.43;62.89;102753.88;5032535;28;20064;-77
2022/04/30 08:33:36;;;;;;;9.40;4.70;;;;;;;10.49;62.60;102753.09;5031671;28;20037;-77
2022/04/30 08:36:01;;;;;;;8.40;4.63;;;;;;;10.45;61.65;102747.00;5032086;28;20064;-77
2022/04/30 08:38:26;;;;;;;11.77;5.20;;;;;;;10.38;62.68;102749.47;5033165;28;20053;-78
2022/04/30 08:40:52;;;;;;;8.53;4.50;;;;;;;10.40;62.83;102751.25;5031534;28;20029;-77
2022/04/30 08:43:20;;;;;;;7.77;5.03;;;;;;;10.34;63.08;102739.00;5032743;28;20037;-77
2022/04/30 08:45:48;;;;;;;8.52;4.90;;;;;;;10.37;63.02;102738.19;5032228;28;20087;-78
2022/04/30 08:48:15;;;;;;;9.45;4.70;;;;;;;10.49;62.43;102734.91;5031706;28;20076;-77
2022/04/30 08:50:43;;;;;;;6.72;4.05;;;;;;;10.65;61.63;102734.31;5032412;28;20041;-78
2022/04/30 08:53:10;;;;;;;10.63;5.20;;;;;;;10.54;61.09;102737.59;5032854;28;20036;-78
2022/04/30 08:55:35;;;;;;;13.02;5.30;;;;;;;10.32;62.45;102739.81;5031928;28;20026;-78
2022/04/30 08:58:01;;;;;;;13.77;6.03;;;;;;;9.83;63.93;102740.75;5032141;28;20076;-79
2022/04/30 09:00:27;;;;;;;11.67;5.63;;;;;;;9.62;64.26;102740.34;5032713;28;20017;-79
2022/04/30 09:02:58;;;;;;;10.80;5.77;;;;;;;9.48;65.26;102738.34;5031667;28;20021;-78
2022/04/30 09:05:30;;;;;;;12.10;5.78;;;;;;;9.39;66.26;102739.03;5032707;28;20528;-78
2022/04/30 09:07:58;;;;;;;10.73;5.30;;;;;;;9.46;66.20;102744.34;5031534;28;20061;-78
2022/04/30 09:10:29;;;;;;;8.02;5.07;;;;;;;9.54;66.11;102735.00;5032555;28;20397;-78
2022/04/30 09:13:16;;;;;;;7.38;4.20;;;;;;;9.66;66.21;102735.25;5032603;28;20040;-78
2022/04/30 09:15:45;;;;;;;8.98;4.95;;;;;;;9.82;65.91;102732.91;5032375;28;20030;-78
2022/04/30 09:18:12;;;;;;;10.13;5.30;;;;;;;9.88;65.17;102728.72;5032475;28;20022;-78
2022/04/30 09:20:48;;;;;;;10.07;5.40;;;;;;;9.98;65.11;102731.47;5032383;28;20025;-78
2022/04/30 09:23:31;;;;;;;8.45;4.63;;;;;;;10.14;64.60;102728.31;5030845;28;20040;-77
2022/04/30 09:25:59;;;;;;;10.45;5.07;;;;;;;10.25;63.69;102732.78;5031564;28;20032;-78
2022/04/30 09:28:30;;;;;;;11.95;5.90;;;;;;;10.23;62.92;102725.00;5032353;28;20120;-78
2022/04/30 09:31:03;;;;;;;8.57;5.05;;;;;;;10.26;62.32;102718.97;5030546;28;20124;-78
2022/04/30 09:33:29;;;;;;;10.00;4.88;;;;;;;10.32;61.88;102721.66;5030846;28;20068;-78
2022/04/30 09:38:47;;;;;;;8.25;4.90;;;;;;;10.42;62.02;102714.91;5031769;28;20044;-77
2022/04/30 09:41:12;;;;;;;8.00;4.30;;;;;;;10.58;61.70;102716.91;5032390;28;20029;-78
2022/04/30 09:43:37;;;;;;;6.33;3.90;;;;;;;10.74;62.09;102714.53;5031786;28;20029;-78
2022/04/30 09:46:06;;;;;;;9.87;5.30;;;;;;;10.88;61.01;102714.69;5032558;28;20029;-77
2022/04/30 09:54:03;;;;;;;9.02;4.82;;;;;;;11.17;59.11;102712.47;5031936;28;20167;-78
2022/04/30 09:56:34;;;;;;;10.68;4.88;;;;;;;11.21;56.98;102703.00;5031963;28;20030;-79
2022/04/30 09:59:02;;;;;;;11.05;5.25;;;;;;;11.30;57.44;102699.63;5031413;28;20044;-79
2022/04/30 10:01:31;;;;;;;9.07;4.60;;;;;;;11.42;58.70;102691.97;5036171;28;20026;-79
2022/04/30 10:03:57;;;;;;;9.57;5.13;;;;;;;11.80;57.59;102696.69;5035921;28;20087;-79
2022/04/30 10:06:22;;;;;;;10.07;5.00;;;;;;;12.02;56.48;102686.50;5035422;28;20029;-78
2022/04/30 10:08:48;;;;;;;8.13;4.43;;;;;;;12.18;53.24;102698.78;5035809;28;20021;-79
2022/04/30 10:11:26;;;;;;;9.17;4.80;;;;;;;12.08;54.31;102694.34;5035561;28;20107;-78
2022/04/30 10:14:05;;;;;;;10.68;5.15;;;;;;;12.09;52.99;102688.31;5035440;28;20029;-79
2022/04/30 10:16:31;;;;;;;9.10;4.88;;;;;;;12.09;53.09;102690.91;5015585;28;20037;-78
2022/04/30 10:19:14;;;;;;;8.77;4.55;;;;;;;12.14;52.33;102694.44;5015302;28;20021;-79
2022/04/30 10:21:39;;;;;;;7.20;4.35;;;;;;;12.03;53.54;102685.66;5015691;28;20038;-78
2022/04/30 10:24:06;;;;;;;6.33;3.93;;;;;;;12.17;54.49;102675.34;5016104;28;20125;-78
2022/04/30 10:26:32;;;;;;;6.95;3.90;;;;;;;12.29;53.00;102682.34;5028988;28;20044;-78
2022/04/30 10:29:16;;;;;;;7.90;4.13;;;;;;;12.30;53.90;102677.19;5035587;28;20029;-77
2022/04/30 10:31:43;;;;;;;6.20;3.70;;;;;;;12.46;54.09;102679.88;5035359;28;20432;-90
2022/04/30 10:34:09;;;;;;;5.82;3.80;;;;;;;12.61;53.02;102684.31;5034624;28;20036;-78
2022/04/30 10:36:36;;;;;;;7.40;4.40;;;;;;;12.51;50.90;102679.03;5035554;28;20033;-79
2022/04/30 10:39:04;;;;;;;6.72;4.22;;;;;;;12.50;52.64;102679.03;5035605;28;20030;-78
2022/04/30 10:41:41;;;;;;;6.40;4.15;;;;;;;12.56;52.39;102673.00;5034716;28;20466;-78
2022/04/30 10:44:06;;;;;;;5.93;3.70;;;;;;;12.65;53.31;102670.44;5035299;28;20366;-77
2022/04/30 10:46:38;;;;;;;5.87;3.57;;;;;;;12.81;52.73;102663.56;5034719;28;20032;-78
2022/04/30 10:49:05;;;;;;;5.40;3.33;;;;;;;12.85;49.91;102654.91;5035315;28;20028;-77
2022/04/30 10:51:37;;;;;;;6.45;3.83;;;;;;;12.86;48.69;102651.44;5034469;28;20474;-78
2022/04/30 10:54:07;;;;;;;4.40;3.08;;;;;;;13.01;51.42;102652.34;5034686;28;20433;-78
2022/04/30 10:56:32;;;;;;;8.55;4.50;;;;;;;13.17;47.75;102648.06;5035046;28;20025;-78
2022/04/30 10:58:58;;;;;;;6.70;4.00;;;;;;;13.18;46.95;102648.06;5034778;28;20109;-78
2022/04/30 11:01:23;;;;;;;6.03;3.90;;;;;;;13.14;48.38;102638.50;5034489;28;20079;-78
2022/04/30 11:03:50;;;;;;;5.00;3.20;;;;;;;13.46;50.99;102645.53;5034538;28;20400;-78
2022/04/30 11:06:21;;;;;;;4.35;3.15;;;;;;;14.02;49.91;102638.59;5035198;28;20080;-78
2022/04/30 11:09:03;;;;;;;4.57;2.90;;;;;;;14.45;45.62;102634.16;5034162;28;20026;-78
2022/04/30 11:11:29;;;;;;;4.97;3.20;;;;;;;14.40;48.69;102636.78;5033782;28;20033;-79
2022/04/30 11:14:09;;;;;;;3.85;2.95;;;;;;;14.33;48.90;102633.31;5034778;28;20087;-78
2022/04/30 11:16:42;;;;;;;5.85;3.83;;;;;;;14.13;46.37;102632.50;5034322;28;20041;-78
2022/04/30 11:19:10;;;;;;;5.65;3.63;;;;;;;14.21;45.86;102629.00;5034738;28;20034;-79
2022/04/30 11:21:37;;;;;;;5.50;3.80;;;;;;;14.35;46.91;102620.28;5034328;28;20116;-78
2022/04/30 11:24:04;;;;;;;5.93;3.40;;;;;;;14.63;48.06;102617.56;5034612;28;20030;-78
2022/04/30 11:26:30;;;;;;;4.68;2.92;;;;;;;15.02;48.43;102615.69;5034526;28;20095;-78
2022/04/30 11:28:56;;;;;;;5.53;3.03;;;;;;;15.30;45.77;102610.25;5033949;28;20353;-79
2022/04/30 11:31:22;;;;;;;6.07;3.65;;;;;;;15.39;42.59;102610.19;5034554;28;20115;-79
2022/04/30 11:33:48;;;;;;;6.93;4.00;;;;;;;15.08;42.56;102612.16;5034324;28;20025;-78
2022/04/30 11:36:13;;;;;;;4.97;3.50;;;;;;;14.93;44.53;102605.25;5033288;28;20018;-77
2022/04/30 11:38:38;;;;;;;3.43;2.83;;;;;;;15.15;44.75;102603.38;5034016;28;20018;-78
2022/04/30 11:41:04;;;;;;;3.77;2.90;;;;;;;15.46;45.21;102603.16;5034087;28;20501;-78
2022/04/30 11:43:30;;;;;;;4.40;3.45;;;;;;;15.40;43.68;102600.63;5033649;28;20470;-77
2022/04/30 11:46:02;;;;;;;5.90;2.90;;;;;;;15.37;45.40;102598.88;5034147;28;20957;-77
2022/04/30 11:48:38;;;;;;;4.43;3.40;;;;;;;15.53;43.06;102594.41;5034184;28;20029;-78
2022/04/30 11:51:04;;;;;;;4.68;3.17;;;;;;;15.63;44.20;102596.94;5033148;28;20559;-78
2022/04/30 11:53:29;;;;;;;3.55;2.72;;;;;;;15.88;40.51;102603.72;5033645;28;20025;-78
2022/04/30 11:55:55;;;;;;;7.37;4.10;;;;;;;15.87;42.44;102596.75;5033606;28;20382;-78
2022/04/30 11:58:20;;;;;;;7.17;4.57;;;;;;;15.23;43.85;102598.13;5033018;28;20029;-78
2022/04/30 12:00:45;;;;;;;8.43;4.73;;;;;;;14.70;45.56;102597.53;5033810;28;20032;-77
2022/04/30 12:03:10;;;;;;;7.30;4.60;;;;;;;14.14;46.49;102598.53;5034055;28;20509;-77
2022/04/30 12:05:36;;;;;;;11.47;5.60;;;;;;;13.65;47.25;102599.47;5033088;28;20025;-78
2022/04/30 12:08:02;;;;;;;10.67;5.13;;;;;;;13.06;49.06;102601.13;5033572;28;20312;-77